Time;durP1;ratioP1;P1;durP2;ratioP2;P2;SDS_P1;SDS_P2;PMS_P1;PMS_P2;Temp;Humidity;BMP_temperature;BMP_pressure;BME280_temperature;BME280_humidity;BME280_pressure;Samples;Min_cycle;Max_cycle;Signal;HPM_P1;HPM_P2
2023/09/11 00:06:23;;;;;;;;;;;;;;;18.35;66.97;101152.91;15806460;28;20071;-49
2023/09/11 00:13:57;;;;;;;17.02;12.85;;;;;;;18.28;67.10;101149.56;15788843;28;20392;-51
2023/09/11 00:21:31;;;;;;;16.33;13.65;;;;;;;18.26;66.56;101141.66;15806010;28;20044;-50
2023/09/11 00:29:07;;;;;;;16.30;13.30;;;;;;;18.15;67.15;101123.59;15804619;28;20131;-50
2023/09/11 00:36:41;;;;;;;14.63;13.02;;;;;;;18.07;67.42;101127.53;15785492;28;20036;-50
2023/09/11 00:44:19;;;;;;;16.95;13.15;;;;;;;17.92;68.31;101118.38;15770256;28;20055;-48
2023/09/11 00:51:56;;;;;;;16.65;13.20;;;;;;;17.89;67.71;101116.16;15777009;28;20085;-53
2023/09/11 00:59:29;;;;;;;16.55;14.05;;;;;;;17.66;68.26;101098.13;15762771;28;20055;-52
2023/09/11 01:07:04;;;;;;;;;;;;;;;17.60;68.84;101108.09;15785611;28;20044;-52
2023/09/11 01:14:38;;;;;;;19.30;13.52;;;;;;;17.63;67.95;101102.16;15789924;28;19987;-49
2023/09/11 01:22:29;;;;;;;14.68;12.32;;;;;;;17.48;68.19;101101.91;15801838;28;20058;-51
2023/09/11 01:30:08;;;;;;;17.35;13.02;;;;;;;17.48;68.26;101091.06;15783943;28;20040;-52
2023/09/11 01:37:42;;;;;;;17.95;13.55;;;;;;;17.36;68.72;101087.63;15783942;28;20040;-50
2023/09/11 01:45:17;;;;;;;16.40;13.10;;;;;;;17.41;68.43;101085.00;15773237;28;20039;-51
2023/09/11 01:52:51;;;;;;;17.10;13.02;;;;;;;17.30;68.39;101081.28;15750838;28;20063;-51
2023/09/11 02:00:26;;;;;;;15.00;12.70;;;;;;;17.16;68.64;101071.81;15755666;28;20028;-48
2023/09/11 02:07:59;;;;;;;15.65;12.88;;;;;;;17.07;69.04;101064.09;15762591;28;20039;-51
2023/09/11 02:15:33;;;;;;;;;;;;;;;17.12;68.72;101060.66;15756191;28;20504;-52
2023/09/11 02:23:09;;;;;;;17.77;12.45;;;;;;;17.02;68.57;101063.16;15768220;28;19924;-51
2023/09/11 02:31:10;;;;;;;17.23;12.57;;;;;;;16.96;68.58;101069.56;15788974;28;20040;-50
2023/09/11 02:38:46;;;;;;;17.27;14.38;;;;;;;16.85;68.80;101060.44;15765298;28;20040;-48
2023/09/11 02:46:20;;;;;;;18.10;14.77;;;;;;;16.79;68.92;101061.44;15785213;28;20052;-50
2023/09/11 02:53:56;;;;;;;17.63;14.85;;;;;;;16.72;69.22;101066.16;15781100;28;20067;-51
2023/09/11 03:01:32;;;;;;;19.50;15.90;;;;;;;16.67;69.14;101064.16;15801648;28;20040;-51
2023/09/11 03:09:06;;;;;;;22.35;15.55;;;;;;;16.59;69.36;101057.22;15784831;28;20040;-49
2023/09/11 03:16:43;;;;;;;19.35;15.40;;;;;;;16.56;69.36;101073.16;15777554;28;20048;-52
2023/09/11 03:24:17;;;;;;;17.52;14.57;;;;;;;16.46;69.46;101071.09;15776058;28;20048;-49
2023/09/11 03:31:52;;;;;;;16.10;13.50;;;;;;;16.53;69.30;101069.03;15747990;28;20066;-50
2023/09/11 03:39:26;;;;;;;17.98;14.27;;;;;;;16.41;69.73;101065.53;15789496;28;20104;-48
2023/09/11 03:47:03;;;;;;;18.20;14.77;;;;;;;16.27;69.46;101059.59;15778149;28;20508;-49
2023/09/11 03:54:36;;;;;;;19.85;14.80;;;;;;;16.25;69.18;101059.00;15788939;28;20043;-49
2023/09/11 04:02:11;;;;;;;16.55;14.57;;;;;;;16.13;69.58;101058.22;15788362;28;20050;-49
2023/09/11 04:09:45;;;;;;;18.55;14.75;;;;;;;16.03;69.69;101066.13;15806655;28;20066;-51
2023/09/11 04:17:19;;;;;;;;;;;;;;;16.01;69.99;101060.13;15774587;28;20044;-53
2023/09/11 04:24:52;;;;;;;18.67;14.18;;;;;;;15.92;69.98;101050.72;15787624;28;19955;-49
2023/09/11 04:32:27;;;;;;;20.38;14.93;;;;;;;15.81;70.56;101055.94;15787417;28;20536;-51
2023/09/11 04:40:01;;;;;;;16.25;14.05;;;;;;;15.93;70.18;101052.38;15803935;28;20043;-49
2023/09/11 04:47:37;;;;;;;17.77;14.10;;;;;;;15.86;70.37;101052.50;15758362;28;20043;-50
2023/09/11 04:55:11;;;;;;;20.17;15.65;;;;;;;15.98;70.17;101045.16;15785661;28;20101;-54
2023/09/11 05:02:50;;;;;;;21.35;14.60;;;;;;;16.07;69.79;101035.63;15785833;28;20032;-49
2023/09/11 05:10:41;;;;;;;19.00;15.57;;;;;;;16.14;69.85;101040.91;15786042;28;20390;-52
2023/09/11 05:18:16;;;;;;;18.77;15.15;;;;;;;16.38;69.24;101041.66;15732544;28;20033;-51
2023/09/11 05:25:55;;;;;;;20.73;15.80;;;;;;;16.62;69.30;101039.66;15763341;28;20137;-52
2023/09/11 05:33:33;;;;;;;20.83;15.80;;;;;;;16.81;69.62;101046.56;15803012;28;20489;-50
2023/09/11 05:41:06;;;;;;;24.13;18.67;;;;;;;17.21;68.93;101047.50;15794409;28;20048;-51
2023/09/11 05:48:41;;;;;;;20.10;17.35;;;;;;;17.45;68.46;101042.72;15749327;28;20054;-52
2023/09/11 05:56:14;;;;;;;27.70;18.77;;;;;;;17.60;68.33;101048.38;15798353;28;20052;-52
2023/09/11 06:03:49;;;;;;;26.45;18.17;;;;;;;17.81;68.32;101052.22;15800734;28;20044;-51
2023/09/11 06:11:23;;;;;;;27.50;17.65;;;;;;;18.04;67.92;101051.97;15781038;28;20071;-53
2023/09/11 06:18:58;;;;;;;28.70;18.48;;;;;;;18.46;67.43;101053.28;15771028;28;20084;-52
2023/09/11 06:26:31;;;;;;;26.08;17.98;;;;;;;18.92;67.27;101051.06;15800581;28;20373;-51
2023/09/11 06:34:05;;;;;;;36.28;17.67;;;;;;;19.32;65.63;101053.31;15774222;28;20048;-48
2023/09/11 06:41:40;;;;;;;36.40;17.88;;;;;;;20.06;62.90;101055.97;15803245;28;20113;-51
2023/09/11 06:49:14;;;;;;;42.08;16.52;;;;;;;20.49;62.65;101048.53;15793123;28;20382;-51
2023/09/11 06:56:48;;;;;;;38.92;16.65;;;;;;;21.06;60.56;101047.50;15810242;28;20575;-50
2023/09/11 07:04:23;;;;;;;26.27;14.65;;;;;;;21.61;60.54;101042.31;15775571;28;20048;-50
2023/09/11 07:11:58;;;;;;;23.02;14.35;;;;;;;22.07;57.00;101039.44;15804142;28;20539;-51
2023/09/11 07:19:37;;;;;;;21.15;13.77;;;;;;;22.78;55.39;101039.06;15791649;28;20055;-49
2023/09/11 07:27:10;;;;;;;19.77;13.27;;;;;;;23.23;55.03;101042.56;15791503;28;20036;-51
2023/09/11 07:34:47;;;;;;;15.38;12.18;;;;;;;23.97;53.24;101037.72;15782995;28;20043;-49
2023/09/11 07:42:23;;;;;;;14.38;11.20;;;;;;;24.53;50.82;101037.00;15752151;28;20151;-49
2023/09/11 07:49:57;;;;;;;12.23;9.90;;;;;;;24.90;49.04;101036.16;15797531;28;20041;-51
2023/09/11 07:57:31;;;;;;;12.63;8.65;;;;;;;25.58;48.29;101037.47;15807874;28;20077;-50
2023/09/11 08:05:06;;;;;;;11.32;7.88;;;;;;;25.78;45.12;101029.97;15757021;28;20064;-50
2023/09/11 08:12:39;;;;;;;13.32;7.10;;;;;;;26.88;43.32;101019.56;15761062;28;20040;-51
2023/09/11 08:20:14;;;;;;;11.93;7.00;;;;;;;27.06;43.05;101020.50;15764325;28;20082;-50
2023/09/11 08:27:48;;;;;;;10.15;7.05;;;;;;;27.54;42.79;101021.75;15787877;28;20032;-51
2023/09/11 08:35:23;;;;;;;8.68;7.13;;;;;;;27.69;41.21;101021.34;15787446;28;20110;-51
2023/09/11 08:42:56;;;;;;;12.38;7.65;;;;;;;28.24;41.54;101018.09;15786242;28;20050;-50
2023/09/11 08:50:33;;;;;;;10.00;7.30;;;;;;;28.96;39.39;101014.75;15786615;28;20062;-50
2023/09/11 08:58:13;;;;;;;9.38;6.75;;;;;;;29.18;37.47;101015.66;15803446;28;20039;-52
2023/09/11 09:05:47;;;;;;;10.40;6.38;;;;;;;29.86;37.38;101007.47;15786823;28;20050;-48
2023/09/11 09:13:24;;;;;;;9.48;6.38;;;;;;;29.48;35.48;101014.63;15798958;28;20051;-51
2023/09/11 09:21:00;;;;;;;13.73;6.60;;;;;;;30.34;35.25;101003.44;15804234;28;20443;-48
2023/09/11 09:28:33;;;;;;;8.82;6.50;;;;;;;31.11;34.64;100995.59;15802234;28;20040;-49
2023/09/11 09:36:09;;;;;;;9.65;6.00;;;;;;;31.04;37.78;100998.09;15784303;28;20059;-51
2023/09/11 09:43:51;;;;;;;13.95;5.88;;;;;;;31.53;33.08;100978.78;15783565;28;20135;-50
2023/09/11 09:52:10;;;;;;;;;;;;;;;;;;;;;
2023/09/11 09:59:44;;;;;;;8.45;4.85;;;;;;;31.83;30.27;100960.75;15797579;28;20044;-51
2023/09/11 10:07:35;;;;;;;9.00;5.32;;;;;;;30.92;31.76;100946.22;15809663;28;20036;-52
2023/09/11 10:15:09;;;;;;;10.07;5.28;;;;;;;31.61;33.57;100941.78;15773321;28;20059;-51
2023/09/11 10:22:44;;;;;;;13.40;5.35;;;;;;;33.22;30.83;100928.59;15796282;28;20086;-51
2023/09/11 10:30:22;;;;;;;9.98;5.60;;;;;;;32.49;31.60;100934.56;15794942;28;20416;-53
2023/09/11 10:37:58;;;;;;;11.10;5.28;;;;;;;33.94;30.15;100913.56;15812021;28;20048;-51
2023/09/11 10:45:33;;;;;;;9.35;5.53;;;;;;;34.62;29.97;100907.44;15811521;28;20040;-51
2023/09/11 10:53:09;;;;;;;11.45;5.43;;;;;;;35.32;28.01;100911.03;15793412;28;20139;-49
2023/09/11 11:00:43;;;;;;;11.38;5.60;;;;;;;35.30;28.28;100900.25;15810828;28;20047;-51
2023/09/11 11:08:18;;;;;;;11.40;5.25;;;;;;;32.62;31.82;100896.41;15810248;28;20072;-53
2023/09/11 11:16:26;;;;;;;15.93;5.60;;;;;;;35.15;27.91;100873.28;15785007;28;20294;-50
2023/09/11 11:24:04;;;;;;;13.35;5.47;;;;;;;32.91;29.58;100878.50;15789953;28;20075;-49
2023/09/11 11:31:40;;;;;;;11.18;5.22;;;;;;;35.51;27.45;100885.84;15760335;28;20032;-54
2023/09/11 11:39:14;;;;;;;10.30;5.55;;;;;;;35.38;27.07;100876.03;15809524;28;20131;-51
2023/09/11 11:46:49;;;;;;;12.25;5.70;;;;;;;35.23;26.53;100873.03;15808365;28;20747;-51
2023/09/11 11:54:23;;;;;;;11.52;5.57;;;;;;;35.93;27.03;100868.84;15802878;28;20037;-53
2023/09/11 12:01:58;;;;;;;10.60;5.50;;;;;;;35.74;27.15;100861.44;15804234;28;20131;-51
2023/09/11 12:09:32;;;;;;;12.77;5.60;;;;;;;35.78;27.43;100858.69;15766079;28;20541;-51
2023/09/11 12:17:09;;;;;;;9.68;5.40;;;;;;;34.51;27.47;100867.41;15800890;28;20127;-50
2023/09/11 12:24:42;;;;;;;11.20;5.07;;;;;;;36.18;25.71;100860.78;15799610;28;20064;-53
2023/09/11 12:32:17;;;;;;;9.98;4.93;;;;;;;35.44;24.84;100858.59;15806257;28;20115;-54
2023/09/11 12:39:56;;;;;;;9.80;4.75;;;;;;;36.54;23.88;100850.03;15735273;28;20040;-53
2023/09/11 12:47:31;;;;;;;8.15;5.00;;;;;;;34.78;26.76;100845.97;15786831;28;20127;-53
2023/09/11 12:55:05;;;;;;;11.80;5.05;;;;;;;35.67;25.36;100847.34;15787040;28;20518;-52
2023/09/11 13:02:40;;;;;;;8.65;5.53;;;;;;;34.98;27.32;100843.94;15794693;28;20039;-53
2023/09/11 13:10:14;;;;;;;12.35;4.70;;;;;;;36.98;24.51;100832.44;15754630;28;20078;-51
2023/09/11 13:17:49;;;;;;;10.57;4.72;;;;;;;37.31;21.71;100819.44;15797381;28;20062;-53
2023/09/11 13:25:22;;;;;;;13.65;4.68;;;;;;;38.02;22.09;100814.25;15803119;28;20428;-52
2023/09/11 13:32:57;;;;;;;9.93;4.47;;;;;;;37.45;23.65;100803.59;15784003;28;20086;-52
2023/09/11 13:40:31;;;;;;;10.20;4.40;;;;;;;37.86;22.22;100803.34;15782879;28;20039;-52
2023/09/11 13:48:06;;;;;;;8.35;4.32;;;;;;;35.17;24.62;100799.19;15801653;28;20048;-53
2023/09/11 13:55:41;;;;;;;18.95;4.82;;;;;;;34.82;25.03;100798.63;15802532;28;20036;-52
2023/09/11 14:03:15;;;;;;;6.65;4.38;;;;;;;33.26;27.19;100806.25;15801431;28;20036;-50
2023/09/11 14:10:49;;;;;;;11.15;4.82;;;;;;;33.68;26.75;100802.84;15797191;28;20055;-52
2023/09/11 14:18:24;;;;;;;12.35;6.05;;;;;;;32.72;26.57;100787.47;15774619;28;20047;-53
2023/09/11 14:25:57;;;;;;;11.68;4.70;;;;;;;32.89;27.04;100775.97;15805289;22;20070;-48
2023/09/11 14:33:31;;;;;;;13.57;4.93;;;;;;;32.74;27.10;100777.59;15794370;28;20033;-51
2023/09/11 14:41:05;;;;;;;9.73;4.90;;;;;;;31.18;28.70;100776.72;15776279;28;20467;-49
2023/09/11 14:48:40;;;;;;;12.57;4.97;;;;;;;31.87;28.37;100778.44;15794500;28;20431;-52
2023/09/11 14:56:13;;;;;;;8.63;5.25;;;;;;;31.86;28.04;100774.06;15804486;28;20036;-49
2023/09/11 15:03:48;;;;;;;11.13;5.00;;;;;;;31.82;28.42;100764.81;15805883;28;20044;-51
2023/09/11 15:11:21;;;;;;;8.65;4.97;;;;;;;31.88;29.31;100763.41;15806867;28;20064;-52
2023/09/11 15:18:56;;;;;;;10.35;5.00;;;;;;;31.98;28.91;100759.31;15849969;28;20127;-53
2023/09/11 15:26:29;;;;;;;11.73;5.57;;;;;;;31.85;28.83;100744.69;15867693;28;20051;-50
2023/09/11 15:34:05;;;;;;;10.82;5.47;;;;;;;31.94;29.48;100736.19;15866878;28;20544;-52
2023/09/11 15:41:38;;;;;;;13.55;5.60;;;;;;;31.64;28.56;100753.19;15866001;28;20036;-53
2023/09/11 15:49:15;;;;;;;10.73;5.50;;;;;;;31.69;32.91;100758.47;15865800;28;20044;-55
2023/09/11 15:56:48;;;;;;;13.93;5.35;;;;;;;31.30;35.26;100751.00;15866177;28;20461;-53
2023/09/11 16:04:23;;;;;;;12.20;5.82;;;;;;;30.87;31.94;100755.97;15864385;28;20153;-50
2023/09/11 16:11:57;;;;;;;17.95;6.20;;;;;;;31.13;33.81;100755.59;15839903;28;20037;-51
2023/09/11 16:19:32;;;;;;;13.70;5.50;;;;;;;30.71;35.55;100758.63;15765930;28;20040;-51
2023/09/11 16:27:07;;;;;;;16.58;5.63;;;;;;;30.55;36.84;100754.91;15800976;28;20113;-53
2023/09/11 16:34:42;;;;;;;14.70;6.00;;;;;;;30.59;33.43;100750.28;15800699;28;20127;-50
2023/09/11 16:42:15;;;;;;;13.77;5.80;;;;;;;30.68;32.46;100742.69;15800267;28;20036;-54
2023/09/11 16:49:49;;;;;;;14.27;5.50;;;;;;;30.41;32.96;100744.16;15798364;28;20480;-54
2023/09/11 16:57:25;;;;;;;36.83;23.02;;;;;;;30.55;33.13;100743.81;15779673;28;20064;-49
2023/09/11 17:04:59;;;;;;;16.33;10.00;;;;;;;30.59;37.21;100755.00;15779479;28;20354;-48
2023/09/11 17:12:33;;;;;;;10.30;6.70;;;;;;;29.91;39.22;100756.22;15791006;28;20483;-50
2023/09/11 17:20:08;;;;;;;19.70;6.30;;;;;;;29.11;40.70;100750.03;15860174;28;20066;-54
2023/09/11 17:27:41;;;;;;;13.90;6.15;;;;;;;28.50;42.81;100750.31;15860745;28;20063;-51
2023/09/11 17:35:16;;;;;;;13.30;6.55;;;;;;;27.73;44.01;100754.00;15859112;28;20039;-49
2023/09/11 17:42:49;;;;;;;23.60;7.57;;;;;;;27.27;45.10;100760.91;15859561;28;20044;-51
2023/09/11 17:50:24;;;;;;;17.30;8.05;;;;;;;26.91;45.87;100773.78;15841253;28;20499;-45
2023/09/11 17:57:57;;;;;;;17.08;7.00;;;;;;;26.56;46.36;100777.53;15858745;28;20043;-48
2023/09/11 18:05:31;;;;;;;11.75;6.88;;;;;;;26.18;47.15;100775.19;15858408;28;20040;-49
2023/09/11 18:13:04;;;;;;;11.52;7.28;;;;;;;25.82;48.26;100787.06;15824609;28;20520;-52
2023/09/11 18:20:41;;;;;;;15.38;7.68;;;;;;;25.52;49.04;100782.25;15795784;28;20503;-50
2023/09/11 18:28:14;;;;;;;14.35;8.20;;;;;;;25.24;49.73;100790.56;15802265;28;20047;-52
2023/09/11 18:35:48;;;;;;;14.75;7.82;;;;;;;24.87;50.60;100786.88;15806703;28;20052;-53
2023/09/11 18:43:21;;;;;;;15.63;7.47;;;;;;;24.46;50.60;100789.59;15815057;28;20069;-52
2023/09/11 18:50:56;;;;;;;10.68;7.18;;;;;;;24.29;51.67;100786.56;15869764;28;20049;-50
2023/09/11 18:58:29;;;;;;;12.20;7.95;;;;;;;24.20;52.13;100794.66;15865200;28;20055;-53
2023/09/11 19:06:04;;;;;;;16.80;8.73;;;;;;;23.99;52.54;100798.88;15818232;28;20036;-53
2023/09/11 19:13:37;;;;;;;13.93;8.77;;;;;;;23.78;53.56;100792.88;15847943;28;20373;-48
2023/09/11 19:21:11;;;;;;;12.98;9.18;;;;;;;23.59;54.85;100793.66;15820663;28;20421;-52
2023/09/11 19:28:44;;;;;;;12.63;9.70;;;;;;;23.36;54.72;100798.09;15829315;28;20414;-54
2023/09/11 19:36:18;;;;;;;15.20;10.40;;;;;;;22.91;56.47;100794.81;15859436;28;20380;-49
2023/09/11 19:43:51;;;;;;;20.50;10.38;;;;;;;23.13;55.88;100793.47;15832629;28;20135;-55
2023/09/11 19:51:26;;;;;;;15.38;10.23;;;;;;;23.06;56.80;100788.34;15833731;28;20248;-51
2023/09/11 19:59:04;;;;;;;16.45;9.20;;;;;;;22.99;58.09;100787.91;15865109;28;20092;-47
2023/09/11 20:06:40;;;;;;;21.65;9.60;;;;;;;22.73;58.69;100787.34;15865126;28;20380;-47
2023/09/11 20:14:13;;;;;;;15.63;9.68;;;;;;;22.60;59.15;100779.81;15839830;28;20123;-48
2023/09/11 20:21:48;;;;;;;16.35;10.07;;;;;;;22.31;59.38;100772.44;15845135;28;20032;-48
2023/09/11 20:29:22;;;;;;;15.25;10.43;;;;;;;22.15;60.20;100770.94;15864137;28;20045;-49
2023/09/11 20:36:56;;;;;;;20.13;11.38;;;;;;;22.08;60.44;100773.97;15862788;28;20040;-45
2023/09/11 20:44:29;;;;;;;16.20;10.73;;;;;;;21.99;60.63;100763.94;15860950;28;20058;-45
2023/09/11 20:52:04;;;;;;;17.83;11.50;;;;;;;21.94;60.80;100770.25;15843917;28;20035;-49
2023/09/11 20:59:38;;;;;;;14.82;10.95;;;;;;;21.62;61.67;100773.50;15842602;28;20027;-47
2023/09/11 21:07:13;;;;;;;18.70;10.40;;;;;;;21.68;61.12;100786.00;15842819;28;20058;-46
2023/09/11 21:14:46;;;;;;;17.08;10.52;;;;;;;21.50;61.49;100776.59;15844492;28;20067;-50
2023/09/11 21:22:20;;;;;;;17.42;10.65;;;;;;;21.41;61.67;100785.66;15805764;28;20032;-49
2023/09/11 21:29:53;;;;;;;19.85;11.38;;;;;;;21.34;61.93;100784.03;15779004;28;20372;-48
2023/09/11 21:37:27;;;;;;;17.00;11.07;;;;;;;21.29;61.80;100778.56;15797554;28;20036;-47
2023/09/11 21:45:00;;;;;;;17.98;11.30;;;;;;;21.08;62.37;100775.13;15796500;28;20046;-47
2023/09/11 21:52:35;;;;;;;25.13;10.32;;;;;;;21.11;61.77;100771.81;15852957;28;20039;-44
2023/09/11 22:00:10;;;;;;;15.73;10.50;;;;;;;20.99;62.51;100776.00;15861265;28;20044;-44
2023/09/11 22:07:47;;;;;;;14.93;10.90;;;;;;;20.85;62.79;100768.38;15872246;28;20048;-44
2023/09/11 22:15:20;;;;;;;13.73;10.70;;;;;;;20.76;62.92;100753.69;15835823;28;20505;-47
2023/09/11 22:22:55;;;;;;;13.00;10.70;;;;;;;20.60;63.47;100765.72;15773266;28;20402;-44
2023/09/11 22:30:28;;;;;;;17.15;10.77;;;;;;;20.53;63.18;100759.75;15773067;28;20229;-46
2023/09/11 22:38:03;;;;;;;17.27;11.68;;;;;;;20.35;63.36;100764.66;15807292;28;20066;-46
2023/09/11 22:45:36;;;;;;;16.30;11.60;;;;;;;20.24;63.17;100756.78;15789077;28;20143;-44
2023/09/11 22:53:11;;;;;;;;;;;;;;;19.96;64.21;100750.78;15850894;28;20088;-46
2023/09/11 23:00:44;;;;;;;14.80;11.50;;;;;;;19.90;64.56;100749.13;15868979;28;20077;-44
2023/09/11 23:08:18;;;;;;;17.70;12.00;;;;;;;19.90;63.93;100748.31;15848554;28;20530;-46
2023/09/11 23:16:01;;;;;;;21.60;12.50;;;;;;;19.78;64.60;100754.03;15825660;28;20074;-44
2023/09/11 23:23:44;;;;;;;15.57;12.30;;;;;;;19.67;64.69;100760.56;15804035;28;20044;-44
2023/09/11 23:31:18;;;;;;;15.95;12.13;;;;;;;19.62;65.00;100755.91;15804742;28;20040;-52
2023/09/11 23:38:53;;;;;;;17.98;12.70;;;;;;;19.43;65.63;100761.00;15803455;28;20407;-46
2023/09/11 23:46:28;;;;;;;16.35;12.32;;;;;;;19.38;65.21;100750.13;15840153;28;20024;-46
2023/09/11 23:54:03;;;;;;;18.65;13.80;;;;;;;19.21;65.87;100758.53;15865503;28;20123;-47
